Time;durP1;ratioP1;P1;durP2;ratioP2;P2;SDS_P1;SDS_P2;PMS_P1;PMS_P2;Temp;Humidity;BMP_temperature;BMP_pressure;BME280_temperature;BME280_humidity;BME280_pressure;Samples;Min_cycle;Max_cycle;Signal;HPM_P1;HPM_P2
2022/08/30 00:02:27;;;;;;;37.85;29.17;;;16.90;99.90;;;;;;20744120;28;20042;-59
2022/08/30 00:12:31;;;;;;;38.45;29.67;;;16.90;99.90;;;;;;20727434;28;20033;-52
2022/08/30 00:22:34;;;;;;;35.08;28.02;;;16.90;99.90;;;;;;20726561;28;20095;-60
2022/08/30 00:32:37;;;;;;;36.05;29.80;;;16.90;99.90;;;;;;20741954;28;20580;-52
2022/08/30 00:42:41;;;;;;;28.33;24.23;;;17.00;99.90;;;;;;20741408;28;20684;-52
2022/08/30 00:52:47;;;;;;;22.02;18.23;;;17.00;99.90;;;;;;20740444;28;20458;-60
2022/08/30 01:02:49;;;;;;;36.75;23.17;;;16.70;99.90;;;;;;20723561;28;20050;-57
2022/08/30 01:12:54;;;;;;;18.98;13.57;;;16.10;99.90;;;;;;20741369;28;20137;-58
2022/08/30 01:23:11;;;;;;;11.52;9.30;;;15.00;99.90;;;;;;20722877;28;20462;-55
2022/08/30 01:33:18;;;;;;;16.33;8.02;;;14.30;99.90;;;;;;20744574;28;20046;-57
2022/08/30 01:43:21;;;;;;;13.13;7.93;;;13.80;99.90;;;;;;20738851;28;20089;-56
2022/08/30 01:53:23;;;;;;;10.13;7.97;;;13.40;99.90;;;;;;20753724;28;20088;-55
2022/08/30 02:03:31;;;;;;;13.18;8.88;;;13.20;99.90;;;;;;20736963;28;20106;-57
2022/08/30 02:13:38;;;;;;;15.18;10.85;;;13.30;99.90;;;;;;20744991;28;20034;-57
2022/08/30 02:23:42;;;;;;;17.35;8.80;;;13.40;99.90;;;;;;20735648;28;20069;-53
2022/08/30 02:33:44;;;;;;;7.78;5.20;;;13.40;99.90;;;;;;20734949;28;20449;-57
2022/08/30 02:43:47;;;;;;;8.75;6.22;;;13.20;99.90;;;;;;20749054;28;20033;-56
2022/08/30 02:53:49;;;;;;;7.00;6.30;;;13.10;99.90;;;;;;20749514;28;20113;-57
2022/08/30 03:03:52;;;;;;;15.18;10.57;;;13.00;99.90;;;;;;20732285;28;20364;-58
2022/08/30 03:13:55;;;;;;;32.90;22.95;;;13.00;99.90;;;;;;20747956;28;20348;-57
2022/08/30 03:23:58;;;;;;;37.25;24.13;;;13.20;99.90;;;;;;20731033;28;20096;-58
2022/08/30 03:34:01;;;;;;;14.38;9.90;;;13.40;99.90;;;;;;20746483;28;20038;-57
2022/08/30 03:44:04;;;;;;;13.18;9.13;;;13.40;99.90;;;;;;20728925;28;20494;-58
2022/08/30 03:54:06;;;;;;;15.10;11.70;;;13.30;99.90;;;;;;20728283;28;20054;-57
2022/08/30 04:04:09;;;;;;;15.90;12.43;;;13.30;99.90;;;;;;20711191;28;20030;-57
2022/08/30 04:14:11;;;;;;;15.43;13.05;;;13.40;99.90;;;;;;20742352;28;20042;-58
2022/08/30 04:24:14;;;;;;;24.67;17.55;;;13.40;99.90;;;;;;20742775;28;20364;-57
2022/08/30 04:34:18;;;;;;;28.55;17.35;;;13.50;99.90;;;;;;20709645;28;20034;-57
2022/08/30 04:44:20;;;;;;;20.65;15.45;;;13.40;99.90;;;;;;20740581;28;20089;-57
2022/08/30 04:54:23;;;;;;;17.88;12.90;;;13.20;99.90;;;;;;20724421;28;20041;-57
2022/08/30 05:04:25;;;;;;;27.83;18.38;;;13.00;99.90;;;;;;20707595;28;20034;-57
2022/08/30 05:14:28;;;;;;;20.52;15.60;;;13.00;99.90;;;;;;20722529;28;20089;-57
2022/08/30 05:24:31;;;;;;;37.35;23.17;;;13.00;99.90;;;;;;20739448;28;20037;-57
2022/08/30 05:34:34;;;;;;;59.78;32.08;;;13.10;99.90;;;;;;20738760;28;20098;-57
2022/08/30 05:44:37;;;;;;;61.83;34.92;;;13.30;99.90;;;;;;20738122;28;20073;-57
2022/08/30 05:54:39;;;;;;;53.90;32.63;;;13.60;99.90;;;;;;20739776;28;20034;-57
2022/08/30 06:04:42;;;;;;;46.15;29.38;;;13.90;99.90;;;;;;20721245;28;20080;-57
2022/08/30 06:14:44;;;;;;;39.83;28.13;;;14.10;99.90;;;;;;20721069;28;20038;-54
2022/08/30 06:24:47;;;;;;;26.08;20.92;;;14.60;99.90;;;;;;20749694;28;20038;-58
2022/08/30 06:34:50;;;;;;;16.95;14.45;;;15.20;99.90;;;;;;20750909;28;20033;-55
2022/08/30 06:44:54;;;;;;;15.98;12.45;;;15.90;99.90;;;;;;20717656;28;20499;-58
2022/08/30 06:54:57;;;;;;;18.98;16.67;;;17.20;99.90;;;;;;20733461;28;20073;-57
2022/08/30 07:05:01;;;;;;;23.30;19.05;;;17.20;99.90;;;;;;20748955;28;20038;-57
2022/08/30 07:15:05;;;;;;;22.65;18.60;;;16.60;99.90;;;;;;20715710;28;20073;-58
2022/08/30 07:25:07;;;;;;;12.35;11.05;;;16.40;99.90;;;;;;20715083;28;20042;-58
2022/08/30 07:35:11;;;;;;;9.77;8.77;;;17.70;99.90;;;;;;20745803;28;20104;-58
2022/08/30 07:45:13;;;;;;;6.55;5.95;;;19.40;99.90;;;;;;20745421;28;20073;-57
2022/08/30 07:55:16;;;;;;;5.70;5.20;;;20.80;99.90;;;;;;20745232;28;20038;-58
2022/08/30 08:05:19;;;;;;;5.65;5.15;;;22.60;99.90;;;;;;20743987;28;20041;-58
2022/08/30 08:15:21;;;;;;;6.97;6.38;;;23.10;99.90;;;;;;20726809;28;20101;-56
2022/08/30 08:25:24;;;;;;;6.40;5.72;;;22.90;99.90;;;;;;20744197;28;20034;-56
2022/08/30 08:35:27;;;;;;;7.20;6.60;;;22.70;99.90;;;;;;20742029;28;20431;-56
2022/08/30 08:45:55;;;;;;;7.75;7.05;;;22.70;99.90;;;;;;20707625;28;20057;-56
2022/08/30 08:55:57;;;;;;;8.13;7.13;;;23.30;99.90;;;;;;20724637;28;20410;-57
2022/08/30 09:06:06;;;;;;;7.72;6.88;;;23.80;99.90;;;;;;20740176;28;20060;-56
2022/08/30 09:16:09;;;;;;;8.25;7.53;;;24.30;99.90;;;;;;20739759;28;20045;-61
2022/08/30 09:26:12;;;;;;;7.63;6.57;;;23.80;99.90;;;;;;20739538;28;20069;-61
2022/08/30 09:36:25;;;;;;;6.80;5.70;;;23.40;99.90;;;;;;20738523;28;20038;-56
2022/08/30 09:46:27;;;;;;;4.82;4.43;;;23.40;99.90;;;;;;20738194;28;20057;-60
2022/08/30 09:56:36;;;;;;;5.82;4.90;;;24.40;99.90;;;;;;20744941;28;20029;-60
2022/08/30 10:06:49;;;;;;;5.07;4.50;;;24.50;99.90;;;;;;20735790;28;20038;-61
2022/08/30 10:17:09;;;;;;;6.10;4.55;;;24.20;99.90;;;;;;20751726;28;20108;-61
2022/08/30 10:27:20;;;;;;;5.38;4.85;;;24.40;99.90;;;;;;20734254;28;20049;-54
2022/08/30 10:37:30;;;;;;;7.90;5.57;;;23.60;99.90;;;;;;20732924;28;20038;-52
2022/08/30 10:47:41;;;;;;;7.63;6.82;;;23.00;99.90;;;;;;20780183;28;20410;-56
2022/08/30 10:57:45;;;;;;;5.78;4.72;;;22.40;99.90;;;;;;20830576;28;20033;-60
2022/08/30 11:08:09;;;;;;;7.60;5.78;;;23.90;99.90;;;;;;20760330;28;20390;-55
2022/08/30 11:18:13;;;;;;;5.82;5.28;;;25.10;99.90;;;;;;20730576;28;20042;-61
2022/08/30 11:28:34;;;;;;;8.07;7.28;;;24.70;99.90;;;;;;20730233;28;20486;-55
2022/08/30 11:38:37;;;;;;;10.70;9.15;;;23.10;99.90;;;;;;20728665;28;20037;-53
2022/08/30 11:48:51;;;;;;;12.48;11.20;;;21.80;99.90;;;;;;20744327;28;20514;-60
2022/08/30 11:59:18;;;;;;;11.27;10.18;;;21.30;99.90;;;;;;20727679;28;20569;-55
2022/08/30 12:09:23;;;;;;;11.70;9.70;;;21.00;99.90;;;;;;20711148;28;20038;-60
2022/08/30 12:19:29;;;;;;;13.18;9.15;;;21.90;99.90;;;;;;20726428;28;20033;-59
2022/08/30 12:29:32;;;;;;;10.68;9.68;;;23.60;99.90;;;;;;20742099;28;20438;-55
2022/08/30 12:39:39;;;;;;;12.75;11.45;;;23.40;99.90;;;;;;20725439;28;20065;-55
2022/08/30 12:49:41;;;;;;;15.40;13.68;;;22.50;99.90;;;;;;20708556;28;20049;-53
2022/08/30 12:59:50;;;;;;;21.10;17.63;;;21.10;99.90;;;;;;20741482;28;20034;-52
2022/08/30 13:10:15;;;;;;;22.50;20.07;;;20.00;99.90;;;;;;20724130;28;20092;-59
2022/08/30 13:20:18;;;;;;;19.10;17.15;;;20.00;99.90;;;;;;20739431;28;20442;-53
2022/08/30 13:30:20;;;;;;;18.05;16.23;;;20.70;99.90;;;;;;20745178;28;20038;-55
2022/08/30 13:40:24;;;;;;;14.32;12.70;;;22.80;99.90;;;;;;20756545;28;20033;-56
2022/08/30 13:50:27;;;;;;;17.75;13.52;;;24.30;99.90;;;;;;20754063;28;20407;-56
2022/08/30 14:00:30;;;;;;;15.23;13.57;;;24.20;99.90;;;;;;20753606;28;20033;-56
2022/08/30 14:10:33;;;;;;;16.90;14.25;;;23.80;99.90;;;;;;20754233;28;20537;-53
2022/08/30 14:20:36;;;;;;;14.15;12.65;;;23.50;99.90;;;;;;20751886;28;20097;-54
2022/08/30 14:30:39;;;;;;;16.08;14.43;;;23.00;99.90;;;;;;20751128;28;20037;-60
2022/08/30 14:40:42;;;;;;;14.98;11.80;;;22.80;99.90;;;;;;20750466;28;20025;-60
2022/08/30 14:50:45;;;;;;;11.00;9.90;;;23.60;99.90;;;;;;20749540;28;20167;-55
2022/08/30 15:00:51;;;;;;;13.98;12.63;;;24.30;99.90;;;;;;20750158;28;20088;-55
2022/08/30 15:10:54;;;;;;;13.20;11.10;;;23.20;99.90;;;;;;20731985;28;20073;-61
2022/08/30 15:20:57;;;;;;;12.07;10.75;;;22.70;99.90;;;;;;20747281;28;20100;-53
2022/08/30 15:30:59;;;;;;;14.82;13.23;;;22.30;99.90;;;;;;20730445;28;20025;-55
2022/08/30 15:41:08;;;;;;;15.02;13.35;;;21.40;99.90;;;;;;20729535;28;20564;-54
2022/08/30 15:51:10;;;;;;;16.27;14.68;;;21.10;99.90;;;;;;20727646;28;20054;-60
2022/08/30 16:01:14;;;;;;;14.18;12.75;;;20.70;99.90;;;;;;20727489;28;20041;-60
2022/08/30 16:11:21;;;;;;;13.00;11.68;;;20.70;99.90;;;;;;20726935;28;20108;-54
2022/08/30 16:21:38;;;;;;;14.75;13.25;;;20.80;99.90;;;;;;20742369;28;20440;-60
2022/08/30 16:31:42;;;;;;;18.15;15.63;;;20.50;99.90;;;;;;20725047;28;20445;-54
2022/08/30 16:41:46;;;;;;;23.00;20.58;;;20.00;99.90;;;;;;20724592;28;20091;-52
2022/08/30 16:51:50;;;;;;;29.67;24.75;;;19.40;99.90;;;;;;20723695;28;20120;-60
2022/08/30 17:01:52;;;;;;;32.05;25.73;;;18.90;99.90;;;;;;20722729;28;20442;-60
2022/08/30 17:11:55;;;;;;;32.75;27.15;;;18.60;99.90;;;;;;20739579;28;20037;-53
2022/08/30 17:21:58;;;;;;;29.33;24.88;;;18.40;99.90;;;;;;20738558;28;20038;-53
2022/08/30 17:32:00;;;;;;;31.63;25.20;;;18.10;99.90;;;;;;20721966;28;20364;-52
2022/08/30 17:42:04;;;;;;;31.90;27.50;;;17.80;99.90;;;;;;20738073;28;20030;-50
2022/08/30 17:52:06;;;;;;;33.42;26.73;;;17.60;99.90;;;;;;20737254;28;20491;-59
2022/08/30 18:02:09;;;;;;;29.55;25.38;;;17.60;99.90;;;;;;20737059;28;20454;-52
2022/08/30 18:12:12;;;;;;;30.70;26.35;;;17.50;99.90;;;;;;20720755;28;20457;-52
2022/08/30 18:22:16;;;;;;;36.00;28.98;;;17.40;99.90;;;;;;20751108;28;20037;-55
2022/08/30 18:32:18;;;;;;;29.48;24.88;;;17.30;99.90;;;;;;20734693;28;20042;-58
2022/08/30 18:42:21;;;;;;;45.85;34.45;;;17.30;99.90;;;;;;20734150;28;20097;-52
2022/08/30 18:52:26;;;;;;;26.27;19.65;;;17.20;99.90;;;;;;20749192;28;20825;-54
2022/08/30 19:02:29;;;;;;;10.63;4.53;;;17.10;99.90;;;;;;20732031;28;20037;-56
2022/08/30 19:12:50;;;;;;;6.93;4.57;;;15.40;99.90;;;;;;20715730;28;20112;-58
2022/08/30 19:22:54;;;;;;;8.35;7.22;;;14.10;99.90;;;;;;20746901;28;20072;-58
2022/08/30 19:32:57;;;;;;;8.55;6.82;;;13.50;99.90;;;;;;20745185;28;20093;-58
2022/08/30 19:43:01;;;;;;;6.13;5.18;;;13.30;99.90;;;;;;20729275;28;20089;-57
2022/08/30 19:53:05;;;;;;;6.78;5.35;;;13.20;99.90;;;;;;20728024;28;20054;-56
2022/08/30 20:03:08;;;;;;;14.48;9.73;;;13.10;99.90;;;;;;20727374;28;20097;-56
2022/08/30 20:13:11;;;;;;;35.67;22.58;;;13.10;99.90;;;;;;20742835;28;20041;-53
2022/08/30 20:23:13;;;;;;;9.82;5.97;;;13.60;99.90;;;;;;20726019;28;20030;-54
2022/08/30 20:33:18;;;;;;;6.32;4.38;;;13.70;99.90;;;;;;20742430;28;20037;-52
2022/08/30 20:43:25;;;;;;;4.88;4.15;;;13.50;99.90;;;;;;20742067;28;20173;-51
2022/08/30 20:53:28;;;;;;;5.57;4.28;;;13.20;99.90;;;;;;20708584;28;20046;-53
2022/08/30 21:03:31;;;;;;;6.15;4.80;;;13.10;99.90;;;;;;20740447;28;20096;-53
2022/08/30 21:13:35;;;;;;;7.03;5.63;;;13.10;99.90;;;;;;20740258;28;20454;-54
2022/08/30 21:23:39;;;;;;;7.28;5.95;;;13.10;99.90;;;;;;20739378;28;20096;-53
2022/08/30 21:33:41;;;;;;;10.05;5.72;;;13.20;99.90;;;;;;20739185;28;20038;-53
2022/08/30 21:43:46;;;;;;;10.45;8.65;;;13.20;99.90;;;;;;20722444;28;20158;-55
2022/08/30 21:53:48;;;;;;;13.77;10.52;;;13.20;99.90;;;;;;20830256;28;20393;-54
2022/08/30 22:03:53;;;;;;;13.40;9.18;;;13.40;99.90;;;;;;20819241;28;20427;-55
2022/08/30 22:13:57;;;;;;;7.32;6.63;;;13.40;99.90;;;;;;20835103;28;20111;-57
2022/08/30 22:24:02;;;;;;;13.45;7.35;;;13.40;99.90;;;;;;20834588;28;20037;-54
2022/08/30 22:34:07;;;;;;;13.10;9.30;;;13.40;99.90;;;;;;20816989;28;20037;-57
2022/08/30 22:44:11;;;;;;;13.52;10.50;;;13.40;99.90;;;;;;20775041;28;20089;-53
2022/08/30 22:54:13;;;;;;;11.25;9.30;;;13.40;99.90;;;;;;20734080;28;20124;-54
2022/08/30 23:04:16;;;;;;;11.82;9.20;;;13.40;99.90;;;;;;20731514;28;20034;-54
2022/08/30 23:14:19;;;;;;;11.13;8.90;;;13.40;99.90;;;;;;20748708;28;20459;-56
